Main page
METAR-TAF:

METAR-TAF

Airports :

Reus, Spain

Reus Airport

latitude: 41-09N, longitude: 001-10E, elevation: 71 m

Current weather observation

The report was made 38 minutes ago, at 15:00 UTC
Wind 9 kt from the West
Temperature 20°C
Humidity 46%
Pressure 1025 hPa
Visibility 10 km or more
no clouds below 1500 m and no cumulonimbus

METAR: LERS 231500Z 26009KT CAVOK 20/08 Q1025

Time: 16:38 (15:38 UTC)

Forecast

The report was made 1 hour and 38 minutes ago, at 14:00 UTC
Forecast valid from 23 at 15 UTC to 24 at 15 UTC
Wind 4 kt from variable directions
Visibility 10 km or more
Few clouds at a height of 3000 ft
Temporary
from 23 at 15 UTC to 23 at 17 UTC
Wind 10 kt from the West
Temporary
from 24 at 11 UTC to 24 at 15 UTC
Wind 7 kt from the South

TAF: LERS 231400Z 2315/2415 VRB04KT 9999 FEW030 TX18/2413Z TN07/2407Z TEMPO 2315/2317 27010KT TEMPO 2411/2415 18007KT

Weather observations and forecasts of more than 4000 airports (METAR and TAF reports).

The available stations are represented by yellow and red dots on the map.

Hover mouse over dot to see the name of the station.

Then click to see weather observations and forecasts.

To change the map : click on the green buttons with a black cross to zoom in, on the green button with a dash to zoom out, or on the green arrows for adjacent maps.


METAR-TAF: